Time;durP1;ratioP1;P1;durP2;ratioP2;P2;SDS_P1;SDS_P2;PMS_P1;PMS_P2;Temp;Humidity;BMP_temperature;BMP_pressure;BME280_temperature;BME280_humidity;BME280_pressure;Samples;Min_cycle;Max_cycle;Signal;HPM_P1;HPM_P2
2024/03/18 00:00:15;;;;;;;7.70;4.70;;;;;;;;;;5136757;27;20199;-63
2024/03/18 00:02:44;;;;;;;6.28;3.50;;;;;;;;;;5136752;27;20213;-63
2024/03/18 00:05:12;;;;;;;6.05;4.07;;;;;;;;;;5136596;27;20239;-63
2024/03/18 00:07:39;;;;;;;4.90;3.65;;;;;;;;;;5136806;27;20313;-62
2024/03/18 00:10:08;;;;;;;5.68;4.00;;;;;;;;;;5136737;27;20191;-62
2024/03/18 00:12:36;;;;;;;6.20;4.15;;;;;;;;;;5136616;27;20225;-63
2024/03/18 00:15:03;;;;;;;9.15;4.53;;;;;;;;;;5136502;27;20550;-64
2024/03/18 00:17:30;;;;;;;5.95;3.40;;;;;;;;;;5136327;27;20609;-63
2024/03/18 00:19:58;;;;;;;6.45;4.25;;;;;;;;;;5136353;27;20646;-63
2024/03/18 00:22:25;;;;;;;5.65;3.50;;;;;;;;;;5136436;27;20309;-63
2024/03/18 00:24:52;;;;;;;7.03;3.97;;;;;;;;;;5136286;27;20191;-62
2024/03/18 00:27:19;;;;;;;5.18;3.80;;;;;;;;;;5136302;27;20192;-62
2024/03/18 00:29:46;;;;;;;7.60;3.72;;;;;;;;;;5136186;27;20217;-63
2024/03/18 00:32:13;;;;;;;8.40;4.80;;;;;;;;;;5136132;27;20187;-63
2024/03/18 00:34:40;;;;;;;7.05;4.70;;;;;;;;;;5136275;27;20193;-63
2024/03/18 00:37:08;;;;;;;5.50;3.40;;;;;;;;;;5136177;27;20189;-63
2024/03/18 00:39:35;;;;;;;4.97;4.03;;;;;;;;;;5136069;27;20211;-63
2024/03/18 00:42:02;;;;;;;4.95;3.42;;;;;;;;;;5135952;27;20222;-63
2024/03/18 00:44:29;;;;;;;8.57;3.67;;;;;;;;;;5135965;27;20183;-63
2024/03/18 00:46:55;;;;;;;4.25;3.72;;;;;;;;;;5135593;27;20310;-63
2024/03/18 00:49:22;;;;;;;5.80;4.30;;;;;;;;;;5136027;27;20294;-62
2024/03/18 00:51:49;;;;;;;4.25;3.60;;;;;;;;;;5135809;27;20787;-62
2024/03/18 00:54:18;;;;;;;8.18;3.20;;;;;;;;;;5135836;27;20643;-64
2024/03/18 00:56:46;;;;;;;6.05;3.85;;;;;;;;;;5135770;27;20194;-64
2024/03/18 00:59:14;;;;;;;6.78;3.78;;;;;;;;;;5135508;27;20198;-64
2024/03/18 01:01:41;;;;;;;5.60;3.83;;;;;;;;;;5135669;27;20223;-63
2024/03/18 01:04:09;;;;;;;7.22;4.45;;;;;;;;;;5134799;27;20195;-64
2024/03/18 01:06:36;;;;;;;6.85;4.00;;;;;;;;;;5135598;27;20191;-64
2024/03/18 01:09:04;;;;;;;4.75;3.65;;;;;;;;;;5135381;27;20240;-64
2024/03/18 01:11:32;;;;;;;5.93;3.53;;;;;;;;;;5135290;27;20638;-64
2024/03/18 01:13:59;;;;;;;6.80;4.63;;;;;;;;;;5135244;27;20194;-64
2024/03/18 01:16:26;;;;;;;4.20;3.78;;;;;;;;;;5135423;27;20187;-63
2024/03/18 01:18:53;;;;;;;9.23;4.35;;;;;;;;;;5135366;27;20190;-62
2024/03/18 01:21:21;;;;;;;9.25;4.90;;;;;;;;;;5135184;27;20611;-63
2024/03/18 01:23:48;;;;;;;7.30;3.92;;;;;;;;;;5135202;27;20592;-64
2024/03/18 01:26:15;;;;;;;4.85;3.63;;;;;;;;;;5135051;27;20642;-64
2024/03/18 01:28:43;;;;;;;7.38;4.45;;;;;;;;;;5134931;27;20278;-64
2024/03/18 01:31:10;;;;;;;8.13;4.82;;;;;;;;;;5135161;27;20244;-64
2024/03/18 01:33:37;;;;;;;5.93;4.20;;;;;;;;;;5135094;27;20194;-64
2024/03/18 01:36:04;;;;;;;6.88;4.25;;;;;;;;;;5134987;27;20633;-64
2024/03/18 01:38:31;;;;;;;7.25;4.53;;;;;;;;;;5134846;27;20226;-63
2024/03/18 01:40:58;;;;;;;11.20;4.70;;;;;;;;;;5134604;27;20211;-64
2024/03/18 01:43:25;;;;;;;7.43;4.57;;;;;;;;;;5134934;27;20187;-64
2024/03/18 01:45:53;;;;;;;5.18;4.07;;;;;;;;;;5134644;27;20306;-64
2024/03/18 01:48:19;;;;;;;5.45;3.88;;;;;;;;;;5134754;27;20218;-63
2024/03/18 01:50:47;;;;;;;6.07;4.47;;;;;;;;;;5134485;27;20633;-62
2024/03/18 01:53:15;;;;;;;4.68;3.65;;;;;;;;;;5113990;28;20426;-62
2024/03/18 01:55:43;;;;;;;5.28;3.97;;;;;;;;;;5113875;28;20188;-62
2024/03/18 01:58:10;;;;;;;8.25;4.70;;;;;;;;;;5114114;28;20184;-62
2024/03/18 02:00:37;;;;;;;4.40;3.40;;;;;;;;;;5114018;28;20219;-62
2024/03/18 02:03:06;;;;;;;6.15;3.80;;;;;;;;;;5113938;28;20551;-63
2024/03/18 02:05:33;;;;;;;7.53;4.22;;;;;;;;;;5113843;28;20646;-63
2024/03/18 02:08:01;;;;;;;8.40;4.15;;;;;;;;;;5113658;28;20548;-63
2024/03/18 02:10:28;;;;;;;5.90;3.55;;;;;;;;;;5113881;28;20195;-63
2024/03/18 02:13:00;;;;;;;4.00;3.58;;;;;;;;;;5113812;28;20223;-62
2024/03/18 02:15:27;;;;;;;4.70;3.60;;;;;;;;;;5113702;28;20184;-62
2024/03/18 02:17:54;;;;;;;3.70;3.40;;;;;;;;;;5113669;28;20269;-63
2024/03/18 02:20:22;;;;;;;4.50;3.25;;;;;;;;;;5113604;28;20219;-63
2024/03/18 02:22:51;;;;;;;4.95;3.53;;;;;;;;;;5113682;28;20306;-63
2024/03/18 02:25:19;;;;;;;5.82;4.25;;;;;;;;;;5113614;28;20196;-63
2024/03/18 02:27:46;;;;;;;4.95;3.70;;;;;;;;;;5113595;28;20219;-64
2024/03/18 02:30:13;;;;;;;4.93;3.70;;;;;;;;;;5113499;28;20184;-63
2024/03/18 02:32:41;;;;;;;5.10;3.30;;;;;;;;;;5113456;28;20217;-62
2024/03/18 02:35:10;;;;;;;5.95;3.90;;;;;;;;;;5113395;28;20603;-62
2024/03/18 02:37:37;;;;;;;5.80;3.53;;;;;;;;;;5113561;28;20196;-64
2024/03/18 02:40:07;;;;;;;4.07;3.22;;;;;;;;;;5113330;28;20191;-64
2024/03/18 02:42:35;;;;;;;5.15;3.60;;;;;;;;;;5113398;28;20241;-63
2024/03/18 02:45:03;;;;;;;4.50;3.97;;;;;;;;;;5113186;28;20547;-63
2024/03/18 02:47:29;;;;;;;4.43;3.22;;;;;;;;;;5113369;28;20198;-64
2024/03/18 02:49:57;;;;;;;5.40;3.47;;;;;;;;;;5113252;28;20227;-63
2024/03/18 02:52:24;;;;;;;7.70;4.35;;;;;;;;;;5113405;28;20184;-62
2024/03/18 02:54:51;;;;;;;5.30;3.60;;;;;;;;;;5113393;28;20192;-64
2024/03/18 02:57:19;;;;;;;5.13;3.83;;;;;;;;;;5113357;28;20187;-64
2024/03/18 02:59:46;;;;;;;9.55;3.85;;;;;;;;;;5113178;28;20317;-64
2024/03/18 03:02:13;;;;;;;7.68;4.55;;;;;;;;;;5113010;28;20226;-64
2024/03/18 03:04:40;;;;;;;6.30;3.50;;;;;;;;;;5113414;28;20550;-64
2024/03/18 03:07:09;;;;;;;7.28;3.75;;;;;;;;;;5113330;28;20271;-64
2024/03/18 03:09:36;;;;;;;4.85;3.20;;;;;;;;;;5113210;28;20187;-64
2024/03/18 03:12:03;;;;;;;3.90;3.50;;;;;;;;;;5113063;28;20195;-64
2024/03/18 03:14:31;;;;;;;3.10;2.80;;;;;;;;;;5113100;28;20188;-64
2024/03/18 03:16:58;;;;;;;4.53;3.47;;;;;;;;;;5113279;28;20184;-64
2024/03/18 03:19:26;;;;;;;3.75;2.97;;;;;;;;;;5113363;28;20214;-64
2024/03/18 03:21:53;;;;;;;5.20;3.60;;;;;;;;;;5113024;28;20618;-64
2024/03/18 03:24:20;;;;;;;5.22;3.20;;;;;;;;;;5112864;28;20666;-64
2024/03/18 03:26:47;;;;;;;4.97;3.30;;;;;;;;;;5113086;28;20597;-64
2024/03/18 03:29:14;;;;;;;4.35;3.65;;;;;;;;;;5116741;28;20192;-64
2024/03/18 03:31:43;;;;;;;4.85;3.60;;;;;;;;;;5117019;28;20279;-64
2024/03/18 03:34:10;;;;;;;5.57;3.15;;;;;;;;;;5116907;28;20551;-64
2024/03/18 03:36:40;;;;;;;5.35;3.20;;;;;;;;;;5116835;28;20568;-64
2024/03/18 03:39:08;;;;;;;2.45;2.25;;;;;;;;;;5116687;28;20244;-64
2024/03/18 03:41:35;;;;;;;4.97;3.38;;;;;;;;;;5116523;28;20215;-64
2024/03/18 03:44:02;;;;;;;5.72;3.45;;;;;;;;;;5116536;28;20192;-64
2024/03/18 03:46:29;;;;;;;3.40;2.65;;;;;;;;;;5116379;28;20306;-64
2024/03/18 03:48:57;;;;;;;4.13;3.20;;;;;;;;;;5116444;28;20643;-64
2024/03/18 03:51:24;;;;;;;3.00;2.42;;;;;;;;;;5116491;28;20194;-64
2024/03/18 03:53:51;;;;;;;4.18;2.40;;;;;;;;;;5116423;28;20274;-64
2024/03/18 03:56:18;;;;;;;6.60;3.00;;;;;;;;;;5116306;28;20219;-64
2024/03/18 03:58:48;;;;;;;4.20;2.90;;;;;;;;;;5116452;28;20659;-64
2024/03/18 04:01:15;;;;;;;5.82;3.30;;;;;;;;;;5116402;28;20192;-64
2024/03/18 04:03:42;;;;;;;4.97;3.20;;;;;;;;;;5116204;28;20581;-64
2024/03/18 04:06:10;;;;;;;3.80;2.92;;;;;;;;;;5116237;28;20220;-64
2024/03/18 04:08:37;;;;;;;3.42;2.80;;;;;;;;;;5116101;28;20191;-64
2024/03/18 04:11:04;;;;;;;4.47;3.13;;;;;;;;;;5115946;28;20220;-64
2024/03/18 04:13:31;;;;;;;4.00;3.40;;;;;;;;;;5116166;28;20278;-64
2024/03/18 04:15:58;;;;;;;4.38;2.10;;;;;;;;;;5116061;28;20195;-64
2024/03/18 04:18:25;;;;;;;3.63;3.25;;;;;;;;;;5115932;28;20278;-64
2024/03/18 04:20:53;;;;;;;3.92;2.78;;;;;;;;;;5115850;28;20190;-64
2024/03/18 04:23:21;;;;;;;3.10;2.90;;;;;;;;;;5115718;28;20229;-64
2024/03/18 04:25:48;;;;;;;4.45;2.90;;;;;;;;;;5116001;28;20199;-64
2024/03/18 04:28:15;;;;;;;5.57;3.05;;;;;;;;;;5115871;28;20551;-64
2024/03/18 04:30:43;;;;;;;4.60;2.50;;;;;;;;;;5115744;28;20184;-64
2024/03/18 04:33:09;;;;;;;3.08;2.78;;;;;;;;;;5115666;28;20546;-64
2024/03/18 04:35:36;;;;;;;3.80;2.80;;;;;;;;;;5115576;28;20187;-64
2024/03/18 04:38:03;;;;;;;4.45;2.50;;;;;;;;;;5115135;28;20188;-64
2024/03/18 04:40:31;;;;;;;4.10;3.00;;;;;;;;;;5114768;28;20184;-64
2024/03/18 04:42:58;;;;;;;3.17;2.65;;;;;;;;;;5115493;28;20215;-64
2024/03/18 04:45:26;;;;;;;6.13;3.13;;;;;;;;;;5115246;28;20273;-64
2024/03/18 04:47:53;;;;;;;4.80;3.50;;;;;;;;;;5115409;28;20217;-64
2024/03/18 04:50:21;;;;;;;3.55;3.10;;;;;;;;;;5115284;28;20619;-64
2024/03/18 04:52:49;;;;;;;3.25;2.50;;;;;;;;;;5115183;28;20184;-64
2024/03/18 04:55:17;;;;;;;6.00;4.95;;;;;;;;;;5115333;28;20191;-64
2024/03/18 04:57:45;;;;;;;3.38;3.08;;;;;;;;;;5115221;28;20184;-64
2024/03/18 05:00:14;;;;;;;3.28;2.67;;;;;;;;;;5115105;28;20623;-64
2024/03/18 05:02:41;;;;;;;24.98;4.60;;;;;;;;;;5114944;28;20233;-64
2024/03/18 05:05:09;;;;;;;6.22;3.40;;;;;;;;;;5114912;28;20252;-64
2024/03/18 05:07:36;;;;;;;4.68;3.03;;;;;;;;;;5115141;28;20188;-65
2024/03/18 05:10:03;;;;;;;3.88;2.60;;;;;;;;;;5115000;28;20276;-64
2024/03/18 05:12:30;;;;;;;4.47;3.40;;;;;;;;;;5114885;28;20275;-64
2024/03/18 05:14:58;;;;;;;3.83;2.70;;;;;;;;;;5114862;28;20274;-64
2024/03/18 05:17:25;;;;;;;4.15;2.95;;;;;;;;;;5114709;28;20188;-64
2024/03/18 05:19:52;;;;;;;4.15;2.65;;;;;;;;;;5114609;28;20195;-64
2024/03/18 05:22:20;;;;;;;3.88;3.17;;;;;;;;;;5114462;28;20739;-64
2024/03/18 05:24:47;;;;;;;5.30;2.95;;;;;;;;;;5114685;28;20188;-64
2024/03/18 05:27:14;;;;;;;9.52;3.78;;;;;;;;;;5114492;28;20274;-64
2024/03/18 05:29:41;;;;;;;12.35;3.50;;;;;;;;;;5114423;28;20196;-64
2024/03/18 05:32:10;;;;;;;6.15;3.25;;;;;;;;;;5114336;28;20286;-64
2024/03/18 05:34:37;;;;;;;62.30;10.52;;;;;;;;;;5114558;28;20195;-64
2024/03/18 05:37:06;;;;;;;10.65;5.38;;;;;;;;;;5114426;28;20276;-64
2024/03/18 05:39:33;;;;;;;6.88;4.30;;;;;;;;;;5114382;28;20184;-64
2024/03/18 05:42:00;;;;;;;4.53;2.53;;;;;;;;;;5114235;28;20195;-64
2024/03/18 05:44:27;;;;;;;3.70;2.42;;;;;;;;;;5114134;28;20192;-64
2024/03/18 05:46:54;;;;;;;2.80;2.60;;;;;;;;;;5113875;28;20220;-64
2024/03/18 05:49:22;;;;;;;5.35;2.80;;;;;;;;;;5114259;28;20609;-64
2024/03/18 05:51:49;;;;;;;5.00;2.85;;;;;;;;;;5113662;28;20643;-64
2024/03/18 05:54:16;;;;;;;3.30;2.55;;;;;;;;;;5114055;28;20192;-64
2024/03/18 05:56:44;;;;;;;6.25;3.40;;;;;;;;;;5113954;28;20196;-64
2024/03/18 05:59:11;;;;;;;5.90;2.60;;;;;;;;;;5113843;28;20191;-64
2024/03/18 06:01:38;;;;;;;5.03;2.40;;;;;;;;;;5114109;28;20464;-64
2024/03/18 06:04:05;;;;;;;3.38;2.25;;;;;;;;;;5113846;28;20488;-64
2024/03/18 06:06:33;;;;;;;2.90;2.53;;;;;;;;;;5113930;28;20188;-64
2024/03/18 06:09:01;;;;;;;4.47;2.13;;;;;;;;;;5113746;28;20222;-64
2024/03/18 06:11:28;;;;;;;1.90;1.80;;;;;;;;;;5113701;28;20416;-64
2024/03/18 06:13:55;;;;;;;2.90;1.90;;;;;;;;;;5113573;28;20876;-64
2024/03/18 06:16:22;;;;;;;2.63;2.30;;;;;;;;;;5113495;28;21031;-63
2024/03/18 06:18:50;;;;;;;3.57;2.40;;;;;;;;;;5113642;28;20437;-64
2024/03/18 06:21:17;;;;;;;2.53;2.20;;;;;;;;;;5113621;28;20452;-64
2024/03/18 06:23:47;;;;;;;2.47;1.70;;;;;;;;;;5113419;28;20488;-64
2024/03/18 06:26:14;;;;;;;2.03;1.83;;;;;;;;;;5113440;28;20873;-64
2024/03/18 06:28:42;;;;;;;4.47;2.20;;;;;;;;;;5113619;28;20188;-64
2024/03/18 06:31:09;;;;;;;2.17;1.90;;;;;;;;;;5113520;28;20441;-64
2024/03/18 06:33:36;;;;;;;3.70;2.15;;;;;;;;;;5113551;28;20532;-64
2024/03/18 06:36:09;;;;;;;4.55;2.50;;;;;;;;;;5113429;28;20194;-64
2024/03/18 06:38:36;;;;;;;2.97;2.22;;;;;;;;;;5113414;28;20191;-64
2024/03/18 06:41:04;;;;;;;4.05;2.33;;;;;;;;;;5113242;28;20295;-64
2024/03/18 06:43:31;;;;;;;5.85;2.10;;;;;;;;;;5113266;28;20582;-64
2024/03/18 06:45:58;;;;;;;2.85;2.30;;;;;;;;;;5113257;28;20215;-64
2024/03/18 06:48:26;;;;;;;2.85;2.40;;;;;;;;;;5113188;28;20226;-64
2024/03/18 06:50:53;;;;;;;2.72;2.30;;;;;;;;;;5113037;28;20188;-63
2024/03/18 06:53:20;;;;;;;5.13;2.10;;;;;;;;;;5113118;28;20274;-64
2024/03/18 06:55:47;;;;;;;2.50;2.28;;;;;;;;;;5113348;28;20253;-64
2024/03/18 06:58:17;;;;;;;2.08;1.92;;;;;;;;;;5113151;28;20710;-64
2024/03/18 07:00:44;;;;;;;2.22;2.03;;;;;;;;;;5113230;28;20298;-63
2024/03/18 07:03:11;;;;;;;3.00;2.10;;;;;;;;;;5115548;28;20265;-64
2024/03/18 07:05:38;;;;;;;2.40;2.20;;;;;;;;;;5117281;28;20187;-64
2024/03/18 07:08:06;;;;;;;1.95;1.85;;;;;;;;;;5117191;28;20184;-64
2024/03/18 07:10:33;;;;;;;4.32;1.90;;;;;;;;;;5117288;28;20244;-64
2024/03/18 07:13:00;;;;;;;5.75;2.00;;;;;;;;;;5117152;28;20184;-64
2024/03/18 07:15:28;;;;;;;3.13;1.88;;;;;;;;;;5117127;28;20188;-64
2024/03/18 07:17:55;;;;;;;3.90;1.90;;;;;;;;;;5116868;28;20639;-63
2024/03/18 07:20:22;;;;;;;2.78;1.90;;;;;;;;;;5116886;28;20187;-64
2024/03/18 07:22:49;;;;;;;2.97;1.90;;;;;;;;;;5117029;28;20253;-64
2024/03/18 07:25:18;;;;;;;2.10;2.00;;;;;;;;;;5117063;28;20184;-63
2024/03/18 07:27:45;;;;;;;2.38;1.50;;;;;;;;;;5116676;28;20223;-64
2024/03/18 07:30:13;;;;;;;6.07;1.60;;;;;;;;;;5116964;28;20192;-63
2024/03/18 07:32:41;;;;;;;2.45;2.13;;;;;;;;;;5116719;28;20184;-63
2024/03/18 07:35:08;;;;;;;1.52;1.42;;;;;;;;;;5116418;28;20543;-64
2024/03/18 07:37:36;;;;;;;2.22;1.95;;;;;;;;;;5116792;28;20190;-64
2024/03/18 07:40:05;;;;;;;1.30;1.20;;;;;;;;;;5116645;28;20187;-64
2024/03/18 07:42:32;;;;;;;1.50;1.40;;;;;;;;;;5116590;28;20241;-64
2024/03/18 07:44:59;;;;;;;1.40;1.17;;;;;;;;;;5116311;28;20242;-64
2024/03/18 07:47:26;;;;;;;1.30;1.20;;;;;;;;;;5116420;28;20573;-64
2024/03/18 07:49:55;;;;;;;1.60;1.20;;;;;;;;;;5116359;28;20184;-63
2024/03/18 07:52:22;;;;;;;2.78;1.10;;;;;;;;;;5116483;28;20642;-63
2024/03/18 07:54:49;;;;;;;1.60;1.50;;;;;;;;;;5116411;28;20188;-63
2024/03/18 07:57:16;;;;;;;2.22;1.00;;;;;;;;;;5116242;28;20224;-63
2024/03/18 07:59:43;;;;;;;1.50;1.13;;;;;;;;;;5116230;28;20188;-64
2024/03/18 08:02:10;;;;;;;2.35;1.00;;;;;;;;;;5116127;28;20222;-63
2024/03/18 08:04:37;;;;;;;1.23;0.90;;;;;;;;;;5115626;28;20207;-63
2024/03/18 08:07:06;;;;;;;1.13;0.90;;;;;;;;;;5116108;28;20192;-63
2024/03/18 08:09:32;;;;;;;1.63;1.00;;;;;;;;;;5115940;28;20183;-65
2024/03/18 08:12:00;;;;;;;1.15;1.05;;;;;;;;;;5115746;28;20238;-61
2024/03/18 08:14:27;;;;;;;3.72;0.82;;;;;;;;;;5115135;28;20224;-67
2024/03/18 08:16:55;;;;;;;0.70;0.70;;;;;;;;;;5115630;28;20298;-63
2024/03/18 08:19:22;;;;;;;1.60;0.70;;;;;;;;;;5115864;28;20192;-67
2024/03/18 08:21:48;;;;;;;0.80;0.70;;;;;;;;;;5115769;28;20190;-67
2024/03/18 08:24:16;;;;;;;1.00;0.70;;;;;;;;;;5115706;28;20303;-65
2024/03/18 08:26:43;;;;;;;1.00;0.80;;;;;;;;;;5115531;28;20802;-66
2024/03/18 08:29:10;;;;;;;0.73;0.73;;;;;;;;;;5115569;28;20188;-67
2024/03/18 08:31:37;;;;;;;2.03;1.17;;;;;;;;;;5115287;28;20264;-66
2024/03/18 08:34:04;;;;;;;1.83;0.85;;;;;;;;;;5115595;28;20191;-68
2024/03/18 08:36:31;;;;;;;1.20;0.82;;;;;;;;;;5115433;28;20193;-66
2024/03/18 08:38:58;;;;;;;0.80;0.70;;;;;;;;;;5115291;28;20216;-68
2024/03/18 08:41:26;;;;;;;0.68;0.60;;;;;;;;;;5115368;28;20192;-67
2024/03/18 08:43:53;;;;;;;0.90;0.60;;;;;;;;;;5115063;28;20215;-68
2024/03/18 08:46:20;;;;;;;1.45;0.80;;;;;;;;;;5114962;28;20224;-70
2024/03/18 08:48:48;;;;;;;2.25;0.70;;;;;;;;;;5115005;28;20655;-63
2024/03/18 08:51:15;;;;;;;1.80;0.90;;;;;;;;;;5115088;28;20192;-69
2024/03/18 08:53:43;;;;;;;1.40;0.90;;;;;;;;;;5115142;28;20718;-67
2024/03/18 08:56:11;;;;;;;1.00;0.85;;;;;;;;;;5115013;28;20227;-64
2024/03/18 08:58:39;;;;;;;2.10;0.80;;;;;;;;;;5114939;28;20638;-64
2024/03/18 09:01:08;;;;;;;1.20;0.80;;;;;;;;;;5115114;28;20192;-64
2024/03/18 09:03:35;;;;;;;1.10;0.80;;;;;;;;;;5114903;28;20610;-63
2024/03/18 09:06:03;;;;;;;1.00;0.70;;;;;;;;;;5114491;28;20331;-64
2024/03/18 09:08:30;;;;;;;1.80;0.80;;;;;;;;;;5114756;28;20245;-63
2024/03/18 09:10:57;;;;;;;2.85;0.73;;;;;;;;;;5114637;28;20275;-66
2024/03/18 09:13:24;;;;;;;1.65;0.77;;;;;;;;;;5114842;28;20195;-70
2024/03/18 09:15:53;;;;;;;1.00;0.88;;;;;;;;;;5114770;28;20198;-69
2024/03/18 09:18:19;;;;;;;0.80;0.70;;;;;;;;;;5114498;28;20592;-68
2024/03/18 09:20:51;;;;;;;2.30;0.80;;;;;;;;;;5114498;28;20282;-65
2024/03/18 09:23:18;;;;;;;2.00;0.60;;;;;;;;;;5113391;28;20979;-65
2024/03/18 09:25:45;;;;;;;3.27;0.70;;;;;;;;;;5112422;28;20817;-65
2024/03/18 09:28:12;;;;;;;0.80;0.60;;;;;;;;;;5114394;28;20783;-65
2024/03/18 09:30:39;;;;;;;0.70;0.60;;;;;;;;;;5114239;28;20714;-65
2024/03/18 09:33:07;;;;;;;1.10;0.80;;;;;;;;;;5114230;28;20627;-65
2024/03/18 09:35:34;;;;;;;2.38;0.85;;;;;;;;;;5114111;28;20433;-65
2024/03/18 09:38:01;;;;;;;1.38;0.80;;;;;;;;;;5114010;28;20670;-65
2024/03/18 09:40:29;;;;;;;1.63;1.00;;;;;;;;;;5114411;28;20190;-65
2024/03/18 09:42:56;;;;;;;0.90;0.70;;;;;;;;;;5114260;28;20196;-65
2024/03/18 09:45:24;;;;;;;0.83;0.83;;;;;;;;;;5113991;28;20267;-65
2024/03/18 09:47:51;;;;;;;1.95;0.80;;;;;;;;;;5114171;28;20445;-65
2024/03/18 09:50:19;;;;;;;1.40;0.80;;;;;;;;;;5113945;28;20188;-65
2024/03/18 09:52:48;;;;;;;0.80;0.80;;;;;;;;;;5113771;28;20188;-65
2024/03/18 09:55:22;;;;;;;2.15;0.90;;;;;;;;;;5114035;28;20734;-65
2024/03/18 09:57:49;;;;;;;1.80;0.80;;;;;;;;;;5114001;28;20546;-64
2024/03/18 10:00:17;;;;;;;1.37;0.83;;;;;;;;;;5113996;28;20442;-65
2024/03/18 10:02:44;;;;;;;1.85;1.25;;;;;;;;;;5113898;28;20525;-64
2024/03/18 10:05:11;;;;;;;1.10;0.80;;;;;;;;;;5113633;28;20303;-65
2024/03/18 10:07:40;;;;;;;1.08;0.70;;;;;;;;;;5113876;28;20469;-63
2024/03/18 10:10:14;;;;;;;0.98;0.80;;;;;;;;;;5113607;28;20207;-64
2024/03/18 10:12:42;;;;;;;1.67;0.85;;;;;;;;;;5113831;28;20275;-64
2024/03/18 10:15:10;;;;;;;1.43;0.80;;;;;;;;;;5113591;28;20198;-63
2024/03/18 10:17:37;;;;;;;1.55;0.88;;;;;;;;;;5113257;28;20451;-63
2024/03/18 10:20:11;;;;;;;1.47;0.80;;;;;;;;;;5113693;28;20275;-63
2024/03/18 10:22:43;;;;;;;1.10;0.90;;;;;;;;;;5113494;28;20445;-64
2024/03/18 10:25:13;;;;;;;0.90;0.80;;;;;;;;;;5113305;28;20250;-63
2024/03/18 10:27:40;;;;;;;1.65;0.70;;;;;;;;;;5113289;28;20192;-62
2024/03/18 10:30:12;;;;;;;0.80;0.80;;;;;;;;;;5113226;28;20278;-64
2024/03/18 10:32:40;;;;;;;1.43;0.80;;;;;;;;;;5113464;28;20188;-66
2024/03/18 10:35:08;;;;;;;2.50;1.07;;;;;;;;;;5113291;28;20940;-66
2024/03/18 10:37:36;;;;;;;1.43;0.90;;;;;;;;;;5113053;28;20469;-66
2024/03/18 10:40:06;;;;;;;1.60;1.00;;;;;;;;;;5113218;28;20471;-64
2024/03/18 10:42:34;;;;;;;2.83;1.00;;;;;;;;;;5113315;28;20519;-63
2024/03/18 10:45:05;;;;;;;0.87;0.80;;;;;;;;;;5113130;28;20564;-65
2024/03/18 10:47:33;;;;;;;0.90;0.80;;;;;;;;;;5113278;28;20877;-66
2024/03/18 10:50:02;;;;;;;0.80;0.60;;;;;;;;;;5113147;28;20503;-67
2024/03/18 10:52:29;;;;;;;1.10;0.73;;;;;;;;;;5112953;28;20491;-66
2024/03/18 10:54:56;;;;;;;1.63;0.90;;;;;;;;;;5113006;28;20446;-66
2024/03/18 10:57:25;;;;;;;2.13;0.80;;;;;;;;;;5113042;28;20452;-66
2024/03/18 10:59:52;;;;;;;1.40;0.90;;;;;;;;;;5113197;28;20445;-68
2024/03/18 11:02:27;;;;;;;1.63;1.00;;;;;;;;;;5113035;28;20538;-68
2024/03/18 11:04:57;;;;;;;0.83;0.60;;;;;;;;;;5113011;28;20487;-66
2024/03/18 11:07:29;;;;;;;0.98;0.70;;;;;;;;;;5112870;28;20442;-65
2024/03/18 11:10:02;;;;;;;1.47;0.93;;;;;;;;;;5112944;28;20768;-62
2024/03/18 11:12:33;;;;;;;1.03;0.80;;;;;;;;;;5113153;28;20532;-63
2024/03/18 11:15:07;;;;;;;1.10;0.90;;;;;;;;;;5112910;28;20470;-63
2024/03/18 11:17:40;;;;;;;0.70;0.70;;;;;;;;;;5112838;28;20472;-65
2024/03/18 11:20:13;;;;;;;0.80;0.80;;;;;;;;;;5112793;28;20536;-59
2024/03/18 11:22:45;;;;;;;1.10;0.90;;;;;;;;;;5112987;28;20464;-60
2024/03/18 11:25:15;;;;;;;1.10;0.80;;;;;;;;;;5112946;28;20483;-61
2024/03/18 11:27:48;;;;;;;1.63;0.80;;;;;;;;;;5112862;28;20537;-60
2024/03/18 11:30:24;;;;;;;0.90;0.80;;;;;;;;;;5112708;28;20445;-60
2024/03/18 11:32:52;;;;;;;2.60;0.87;;;;;;;;;;5112917;28;20533;-66
2024/03/18 11:35:19;;;;;;;0.77;0.70;;;;;;;;;;5112731;28;20528;-65
2024/03/18 11:37:46;;;;;;;1.00;0.90;;;;;;;;;;5112444;28;20874;-64
2024/03/18 11:40:15;;;;;;;0.73;0.70;;;;;;;;;;5112725;28;20473;-67
2024/03/18 11:42:42;;;;;;;0.70;0.70;;;;;;;;;;5112604;28;20533;-63
2024/03/18 11:45:16;;;;;;;1.70;0.70;;;;;;;;;;5112192;28;20477;-63
2024/03/18 11:47:43;;;;;;;2.53;0.90;;;;;;;;;;5112766;28;20445;-63
2024/03/18 11:50:11;;;;;;;1.47;0.70;;;8.30;97.90;;;;;;5116420;28;20488;-63
2024/03/18 11:52:38;;;;;;;0.80;0.77;;;8.30;97.60;;;;;;5116189;28;20448;-63
2024/03/18 11:55:05;;;;;;;0.80;0.70;;;8.20;97.10;;;;;;5116208;28;20437;-63
2024/03/18 11:57:31;;;;;;;1.70;0.80;;;8.30;97.20;;;;;;5116081;28;20445;-62
2024/03/18 11:59:58;;;;;;;0.87;0.87;;;8.40;96.70;;;;;;5116151;28;20533;-65
2024/03/18 12:02:26;;;;;;;1.57;0.93;;;8.30;97.80;;;;;;5116355;28;20540;-65
2024/03/18 12:04:52;;;;;;;1.00;0.90;;;8.50;96.80;;;;;;5115916;28;20572;-65
2024/03/18 12:07:19;;;;;;;2.17;1.20;;;8.60;96.60;;;;;;5116076;28;20441;-65
2024/03/18 12:09:46;;;;;;;0.70;0.60;;;8.50;95.90;;;;;;5115880;28;20879;-65
2024/03/18 12:12:13;;;;;;;1.47;0.80;;;8.40;95.80;;;;;;5115779;28;20840;-65
2024/03/18 12:14:39;;;;;;;0.70;0.60;;;8.60;96.70;;;;;;5115999;28;20796;-67
2024/03/18 12:17:06;;;;;;;1.00;0.80;;;8.50;94.90;;;;;;5115622;28;20941;-67
2024/03/18 12:19:33;;;;;;;1.10;0.87;;;8.40;95.10;;;;;;5115937;28;20855;-69
2024/03/18 12:22:00;;;;;;;1.50;0.70;;;8.30;95.20;;;;;;5115618;28;20460;-63
2024/03/18 12:29:58;;;;;;;3.00;0.90;;;8.40;95.30;;;;;;5115876;28;20558;-67
2024/03/18 12:32:25;;;;;;;1.83;0.80;;;8.10;95.00;;;;;;5115453;28;20808;-65
2024/03/18 12:34:53;;;;;;;1.23;0.80;;;8.10;95.20;;;;;;5115384;28;20469;-65
2024/03/18 12:37:19;;;;;;;0.93;0.80;;;8.00;96.30;;;;;;5114987;28;20448;-65
2024/03/18 12:39:46;;;;;;;1.13;1.00;;;8.20;97.40;;;;;;5115363;28;20442;-66
2024/03/18 12:42:13;;;;;;;0.80;0.70;;;8.50;96.40;;;;;;5115019;28;20986;-66
2024/03/18 12:44:40;;;;;;;1.37;0.70;;;8.70;95.80;;;;;;5115051;28;20996;-66
2024/03/18 12:47:08;;;;;;;1.03;0.60;;;8.90;96.00;;;;;;5114924;28;20469;-64
2024/03/18 12:49:34;;;;;;;1.00;0.77;;;8.90;95.60;;;;;;5115170;28;20518;-67
2024/03/18 12:52:02;;;;;;;1.10;0.90;;;8.70;95.40;;;;;;5115097;28;20538;-65
2024/03/18 12:54:29;;;;;;;0.90;0.77;;;8.80;96.20;;;;;;5115336;28;20902;-65
2024/03/18 12:56:56;;;;;;;1.10;1.00;;;9.00;95.40;;;;;;5115091;28;20521;-65
2024/03/18 12:59:23;;;;;;;1.40;1.30;;;9.00;95.50;;;;;;5114201;28;20445;-65
2024/03/18 13:01:50;;;;;;;2.00;1.00;;;8.90;95.10;;;;;;5114654;28;20461;-67
2024/03/18 13:04:16;;;;;;;2.93;0.80;;;8.70;95.40;;;;;;5114755;28;20442;-67
2024/03/18 13:06:43;;;;;;;1.00;0.90;;;8.70;95.90;;;;;;5115055;28;20536;-65
2024/03/18 13:09:14;;;;;;;1.27;0.97;;;9.00;95.10;;;;;;5114519;28;20940;-66
2024/03/18 13:11:40;;;;;;;2.40;1.20;;;9.20;95.50;;;;;;5113823;28;20471;-66
2024/03/18 13:14:09;;;;;;;1.20;1.00;;;9.10;95.10;;;;;;5114539;28;20639;-69
2024/03/18 13:16:35;;;;;;;1.10;1.00;;;9.20;94.90;;;;;;5114405;28;20441;-66
2024/03/18 13:19:02;;;;;;;3.10;1.10;;;9.40;94.70;;;;;;5114602;28;20535;-62
2024/03/18 13:21:31;;;;;;;1.73;1.10;;;9.50;94.90;;;;;;5114610;28;20473;-62
2024/03/18 13:23:57;;;;;;;1.30;0.80;;;9.20;94.50;;;;;;5114598;28;20475;-67
2024/03/18 13:26:25;;;;;;;1.27;1.00;;;9.00;95.00;;;;;;5114338;28;20478;-66
2024/03/18 13:28:52;;;;;;;1.53;0.90;;;9.10;95.30;;;;;;5114263;28;20532;-62
2024/03/18 13:31:22;;;;;;;1.77;1.17;;;9.10;94.90;;;;;;5114212;28;20521;-64
2024/03/18 13:33:49;;;;;;;0.97;0.77;;;9.10;94.60;;;;;;5114496;28;20495;-64
2024/03/18 13:36:16;;;;;;;1.63;1.10;;;9.10;94.40;;;;;;5114347;28;20456;-65
2024/03/18 13:38:43;;;;;;;1.30;0.93;;;9.10;94.80;;;;;;5114195;28;20452;-65
2024/03/18 13:41:13;;;;;;;1.30;1.20;;;9.20;95.70;;;;;;5114107;28;20445;-63
2024/03/18 13:43:43;;;;;;;1.33;1.00;;;9.30;94.70;;;;;;5113925;28;20988;-63
2024/03/18 13:46:11;;;;;;;1.00;0.90;;;9.50;94.80;;;;;;5113642;28;20546;-63
2024/03/18 13:48:38;;;;;;;1.40;1.03;;;9.70;94.30;;;;;;5114247;28;20441;-63
2024/03/18 13:51:05;;;;;;;4.20;1.40;;;9.60;94.10;;;;;;5114152;28;20474;-63
2024/03/18 13:53:32;;;;;;;1.40;1.00;;;9.20;94.10;;;;;;5113485;28;20552;-63
2024/03/18 13:55:58;;;;;;;2.07;1.20;;;9.20;94.60;;;;;;5113878;28;20453;-62
2024/03/18 13:58:25;;;;;;;2.77;1.20;;;9.00;95.40;;;;;;5113611;28;20448;-64
2024/03/18 14:00:53;;;;;;;1.00;0.87;;;9.00;95.20;;;;;;5113951;28;20540;-63
2024/03/18 14:03:19;;;;;;;1.37;1.20;;;9.00;94.80;;;;;;5113958;28;20444;-64
2024/03/18 14:05:46;;;;;;;1.87;1.77;;;9.00;95.50;;;;;;5113682;28;20564;-64
2024/03/18 14:08:12;;;;;;;2.33;1.20;;;9.00;95.20;;;;;;5113678;28;20540;-65
2024/03/18 14:10:39;;;;;;;1.47;1.30;;;9.30;95.80;;;;;;5113364;28;20477;-63
2024/03/18 14:13:06;;;;;;;1.33;1.23;;;9.40;95.10;;;;;;5113453;28;20449;-62
2024/03/18 14:15:32;;;;;;;1.30;1.00;;;9.20;95.10;;;;;;5113767;28;20445;-63
2024/03/18 14:18:02;;;;;;;2.40;1.20;;;9.00;94.70;;;;;;5113640;28;20442;-63
2024/03/18 14:20:29;;;;;;;1.77;1.30;;;8.90;95.10;;;;;;5113523;28;20445;-63
2024/03/18 14:22:56;;;;;;;1.40;1.20;;;8.70;95.70;;;;;;5113440;28;20448;-62
2024/03/18 14:25:22;;;;;;;5.30;1.63;;;8.60;95.70;;;;;;5113662;28;20472;-64
2024/03/18 14:27:54;;;;;;;2.27;1.40;;;8.50;96.00;;;;;;5113238;28;20453;-62